sensor_id;sensor_type;location;lat;lon;timestamp;P1;durP1;ratioP1;P2;durP2;ratioP2
68229;SDS011;55048;52.220;5.160;2022-11-20T00:01:39;17.13;;;8.55;;
68229;SDS011;55048;52.220;5.160;2022-11-20T00:04:04;15.13;;;8.55;;
68229;SDS011;55048;52.220;5.160;2022-11-20T00:06:30;15.43;;;8.30;;
68229;SDS011;55048;52.220;5.160;2022-11-20T00:08:56;14.27;;;7.90;;
68229;SDS011;55048;52.220;5.160;2022-11-20T00:11:23;14.68;;;7.65;;
68229;SDS011;55048;52.220;5.160;2022-11-20T00:13:51;13.02;;;7.72;;
68229;SDS011;55048;52.220;5.160;2022-11-20T00:16:21;15.18;;;8.70;;
68229;SDS011;55048;52.220;5.160;2022-11-20T00:18:47;16.48;;;8.23;;
68229;SDS011;55048;52.220;5.160;2022-11-20T00:21:14;14.73;;;7.70;;
68229;SDS011;55048;52.220;5.160;2022-11-20T00:23:50;14.93;;;8.30;;
68229;SDS011;55048;52.220;5.160;2022-11-20T00:26:18;15.60;;;8.43;;
68229;SDS011;55048;52.220;5.160;2022-11-20T00:28:48;15.52;;;8.65;;
68229;SDS011;55048;52.220;5.160;2022-11-20T00:31:16;13.68;;;8.50;;
68229;SDS011;55048;52.220;5.160;2022-11-20T00:33:42;15.52;;;7.93;;
68229;SDS011;55048;52.220;5.160;2022-11-20T00:36:15;15.23;;;7.50;;
68229;SDS011;55048;52.220;5.160;2022-11-20T00:38:43;13.88;;;8.30;;
68229;SDS011;55048;52.220;5.160;2022-11-20T00:41:10;12.60;;;6.72;;
68229;SDS011;55048;52.220;5.160;2022-11-20T00:43:37;15.30;;;7.93;;
68229;SDS011;55048;52.220;5.160;2022-11-20T00:48:32;16.17;;;8.32;;
68229;SDS011;55048;52.220;5.160;2022-11-20T00:50:58;15.70;;;8.13;;
68229;SDS011;55048;52.220;5.160;2022-11-20T00:53:24;13.80;;;7.95;;
68229;SDS011;55048;52.220;5.160;2022-11-20T00:55:53;16.52;;;7.55;;
68229;SDS011;55048;52.220;5.160;2022-11-20T00:58:23;14.90;;;7.72;;
68229;SDS011;55048;52.220;5.160;2022-11-20T01:00:49;14.13;;;7.35;;
68229;SDS011;55048;52.220;5.160;2022-11-20T01:03:18;14.32;;;7.93;;
68229;SDS011;55048;52.220;5.160;2022-11-20T01:05:44;16.00;;;7.53;;
68229;SDS011;55048;52.220;5.160;2022-11-20T01:08:09;13.05;;;7.50;;
68229;SDS011;55048;52.220;5.160;2022-11-20T01:10:35;16.08;;;7.93;;
68229;SDS011;55048;52.220;5.160;2022-11-20T01:13:01;13.95;;;7.50;;
68229;SDS011;55048;52.220;5.160;2022-11-20T01:15:45;14.43;;;8.05;;
68229;SDS011;55048;52.220;5.160;2022-11-20T01:18:10;11.95;;;7.28;;
68229;SDS011;55048;52.220;5.160;2022-11-20T01:20:36;16.23;;;8.00;;
68229;SDS011;55048;52.220;5.160;2022-11-20T01:23:02;15.70;;;8.25;;
68229;SDS011;55048;52.220;5.160;2022-11-20T01:25:28;11.38;;;6.90;;
68229;SDS011;55048;52.220;5.160;2022-11-20T01:27:53;14.13;;;7.28;;
68229;SDS011;55048;52.220;5.160;2022-11-20T01:30:19;13.35;;;7.20;;
68229;SDS011;55048;52.220;5.160;2022-11-20T01:32:44;14.93;;;7.60;;
68229;SDS011;55048;52.220;5.160;2022-11-20T01:35:09;15.93;;;8.10;;
68229;SDS011;55048;52.220;5.160;2022-11-20T01:37:35;17.33;;;7.85;;
68229;SDS011;55048;52.220;5.160;2022-11-20T01:40:00;16.65;;;8.15;;
68229;SDS011;55048;52.220;5.160;2022-11-20T01:42:26;18.02;;;8.32;;
68229;SDS011;55048;52.220;5.160;2022-11-20T01:48:12;19.08;;;9.10;;
68229;SDS011;55048;52.220;5.160;2022-11-20T01:50:39;15.02;;;7.80;;
68229;SDS011;55048;52.220;5.160;2022-11-20T01:53:07;14.80;;;7.93;;
68229;SDS011;55048;52.220;5.160;2022-11-20T01:55:36;16.02;;;8.15;;
68229;SDS011;55048;52.220;5.160;2022-11-20T01:58:06;16.08;;;7.72;;
68229;SDS011;55048;52.220;5.160;2022-11-20T02:00:32;17.83;;;7.60;;
68229;SDS011;55048;52.220;5.160;2022-11-20T02:02:58;19.42;;;7.95;;
68229;SDS011;55048;52.220;5.160;2022-11-20T02:05:28;17.27;;;8.05;;
68229;SDS011;55048;52.220;5.160;2022-11-20T02:08:00;12.35;;;7.72;;
68229;SDS011;55048;52.220;5.160;2022-11-20T02:10:27;15.23;;;7.85;;
68229;SDS011;55048;52.220;5.160;2022-11-20T02:12:53;13.13;;;7.60;;
68229;SDS011;55048;52.220;5.160;2022-11-20T02:15:38;14.30;;;8.07;;
68229;SDS011;55048;52.220;5.160;2022-11-20T02:18:03;15.48;;;7.90;;
68229;SDS011;55048;52.220;5.160;2022-11-20T02:20:30;15.70;;;8.05;;
68229;SDS011;55048;52.220;5.160;2022-11-20T02:22:59;17.83;;;8.20;;
68229;SDS011;55048;52.220;5.160;2022-11-20T02:25:33;14.27;;;8.02;;
68229;SDS011;55048;52.220;5.160;2022-11-20T02:28:01;15.88;;;8.50;;
68229;SDS011;55048;52.220;5.160;2022-11-20T02:30:27;14.52;;;7.60;;
68229;SDS011;55048;52.220;5.160;2022-11-20T02:32:52;17.17;;;8.40;;
68229;SDS011;55048;52.220;5.160;2022-11-20T02:37:43;16.92;;;8.07;;
68229;SDS011;55048;52.220;5.160;2022-11-20T02:40:10;13.40;;;7.28;;
68229;SDS011;55048;52.220;5.160;2022-11-20T02:42:36;14.88;;;8.15;;
68229;SDS011;55048;52.220;5.160;2022-11-20T02:45:03;14.48;;;8.05;;
68229;SDS011;55048;52.220;5.160;2022-11-20T02:47:29;13.70;;;7.65;;
68229;SDS011;55048;52.220;5.160;2022-11-20T02:49:55;16.83;;;7.97;;
68229;SDS011;55048;52.220;5.160;2022-11-20T02:52:20;14.77;;;7.88;;
68229;SDS011;55048;52.220;5.160;2022-11-20T02:54:46;15.82;;;7.90;;
68229;SDS011;55048;52.220;5.160;2022-11-20T02:57:11;17.23;;;8.27;;
68229;SDS011;55048;52.220;5.160;2022-11-20T02:59:36;14.40;;;7.53;;
68229;SDS011;55048;52.220;5.160;2022-11-20T03:02:02;16.08;;;7.53;;
68229;SDS011;55048;52.220;5.160;2022-11-20T03:04:27;13.15;;;7.75;;
68229;SDS011;55048;52.220;5.160;2022-11-20T03:06:53;15.07;;;7.90;;
68229;SDS011;55048;52.220;5.160;2022-11-20T03:09:18;17.75;;;7.95;;
68229;SDS011;55048;52.220;5.160;2022-11-20T03:11:43;14.65;;;7.78;;
68229;SDS011;55048;52.220;5.160;2022-11-20T03:14:09;13.95;;;8.10;;
68229;SDS011;55048;52.220;5.160;2022-11-20T03:16:34;17.30;;;8.05;;
68229;SDS011;55048;52.220;5.160;2022-11-20T03:18:59;14.23;;;8.25;;
68229;SDS011;55048;52.220;5.160;2022-11-20T03:21:25;15.75;;;8.07;;
68229;SDS011;55048;52.220;5.160;2022-11-20T03:23:52;13.48;;;7.10;;
68229;SDS011;55048;52.220;5.160;2022-11-20T03:26:20;12.90;;;7.20;;
68229;SDS011;55048;52.220;5.160;2022-11-20T03:28:54;14.45;;;7.22;;
68229;SDS011;55048;52.220;5.160;2022-11-20T03:31:21;17.02;;;7.65;;
68229;SDS011;55048;52.220;5.160;2022-11-20T03:33:49;16.35;;;8.15;;
68229;SDS011;55048;52.220;5.160;2022-11-20T03:36:15;15.70;;;6.68;;
68229;SDS011;55048;52.220;5.160;2022-11-20T03:38:42;13.52;;;7.55;;
68229;SDS011;55048;52.220;5.160;2022-11-20T03:41:09;14.98;;;7.93;;
68229;SDS011;55048;52.220;5.160;2022-11-20T03:43:36;14.70;;;7.15;;
68229;SDS011;55048;52.220;5.160;2022-11-20T03:46:02;12.77;;;7.60;;
68229;SDS011;55048;52.220;5.160;2022-11-20T03:48:28;12.55;;;7.85;;
68229;SDS011;55048;52.220;5.160;2022-11-20T03:53:57;13.38;;;7.38;;
68229;SDS011;55048;52.220;5.160;2022-11-20T03:56:26;14.30;;;7.85;;
68229;SDS011;55048;52.220;5.160;2022-11-20T03:58:54;12.88;;;7.18;;
68229;SDS011;55048;52.220;5.160;2022-11-20T04:01:38;13.25;;;7.07;;
68229;SDS011;55048;52.220;5.160;2022-11-20T04:04:03;14.15;;;7.03;;
68229;SDS011;55048;52.220;5.160;2022-11-20T04:06:30;16.90;;;7.70;;
68229;SDS011;55048;52.220;5.160;2022-11-20T04:08:59;14.15;;;7.25;;
68229;SDS011;55048;52.220;5.160;2022-11-20T04:11:28;13.30;;;7.10;;
68229;SDS011;55048;52.220;5.160;2022-11-20T04:13:59;14.20;;;7.50;;
68229;SDS011;55048;52.220;5.160;2022-11-20T04:16:26;13.43;;;7.25;;
68229;SDS011;55048;52.220;5.160;2022-11-20T04:18:54;11.65;;;7.05;;
68229;SDS011;55048;52.220;5.160;2022-11-20T04:21:21;16.15;;;7.32;;
68229;SDS011;55048;52.220;5.160;2022-11-20T04:23:48;11.68;;;6.80;;
68229;SDS011;55048;52.220;5.160;2022-11-20T04:26:14;13.70;;;7.25;;
68229;SDS011;55048;52.220;5.160;2022-11-20T04:28:40;13.82;;;7.65;;
68229;SDS011;55048;52.220;5.160;2022-11-20T04:31:06;12.50;;;6.95;;
68229;SDS011;55048;52.220;5.160;2022-11-20T04:33:36;15.27;;;7.47;;
68229;SDS011;55048;52.220;5.160;2022-11-20T04:36:03;13.07;;;7.53;;
68229;SDS011;55048;52.220;5.160;2022-11-20T04:38:30;12.45;;;7.22;;
68229;SDS011;55048;52.220;5.160;2022-11-20T04:41:05;15.00;;;8.05;;
68229;SDS011;55048;52.220;5.160;2022-11-20T04:43:33;15.30;;;8.02;;
68229;SDS011;55048;52.220;5.160;2022-11-20T04:46:24;11.32;;;6.45;;
68229;SDS011;55048;52.220;5.160;2022-11-20T04:48:51;13.27;;;7.00;;
68229;SDS011;55048;52.220;5.160;2022-11-20T04:51:17;14.07;;;7.20;;
68229;SDS011;55048;52.220;5.160;2022-11-20T04:53:43;13.93;;;7.32;;
68229;SDS011;55048;52.220;5.160;2022-11-20T04:56:09;15.38;;;7.15;;
68229;SDS011;55048;52.220;5.160;2022-11-20T04:58:37;13.18;;;7.43;;
68229;SDS011;55048;52.220;5.160;2022-11-20T05:01:07;14.70;;;8.20;;
68229;SDS011;55048;52.220;5.160;2022-11-20T05:03:37;13.63;;;8.13;;
68229;SDS011;55048;52.220;5.160;2022-11-20T05:06:02;14.85;;;7.72;;
68229;SDS011;55048;52.220;5.160;2022-11-20T05:08:30;14.20;;;7.18;;
68229;SDS011;55048;52.220;5.160;2022-11-20T05:11:00;13.60;;;7.63;;
68229;SDS011;55048;52.220;5.160;2022-11-20T05:13:44;16.45;;;8.10;;
68229;SDS011;55048;52.220;5.160;2022-11-20T05:16:14;13.60;;;7.57;;
68229;SDS011;55048;52.220;5.160;2022-11-20T05:18:41;16.20;;;8.38;;
68229;SDS011;55048;52.220;5.160;2022-11-20T05:21:07;14.82;;;7.60;;
68229;SDS011;55048;52.220;5.160;2022-11-20T05:23:33;18.58;;;8.73;;
68229;SDS011;55048;52.220;5.160;2022-11-20T05:26:00;16.80;;;8.20;;
68229;SDS011;55048;52.220;5.160;2022-11-20T05:28:26;14.05;;;7.50;;
68229;SDS011;55048;52.220;5.160;2022-11-20T05:30:53;19.65;;;8.27;;
68229;SDS011;55048;52.220;5.160;2022-11-20T05:33:19;13.93;;;8.00;;
68229;SDS011;55048;52.220;5.160;2022-11-20T05:35:44;18.67;;;8.90;;
68229;SDS011;55048;52.220;5.160;2022-11-20T05:38:10;14.02;;;8.43;;
68229;SDS011;55048;52.220;5.160;2022-11-20T05:40:35;13.85;;;8.60;;
68229;SDS011;55048;52.220;5.160;2022-11-20T05:43:00;17.67;;;8.57;;
68229;SDS011;55048;52.220;5.160;2022-11-20T05:45:26;15.32;;;7.97;;
68229;SDS011;55048;52.220;5.160;2022-11-20T05:47:51;16.02;;;8.75;;
68229;SDS011;55048;52.220;5.160;2022-11-20T05:50:17;15.95;;;8.63;;
68229;SDS011;55048;52.220;5.160;2022-11-20T05:52:42;16.33;;;8.02;;
68229;SDS011;55048;52.220;5.160;2022-11-20T05:55:08;12.85;;;7.50;;
68229;SDS011;55048;52.220;5.160;2022-11-20T05:57:34;16.70;;;8.20;;
68229;SDS011;55048;52.220;5.160;2022-11-20T06:00:00;14.85;;;8.40;;
68229;SDS011;55048;52.220;5.160;2022-11-20T06:02:25;17.00;;;8.60;;
68229;SDS011;55048;52.220;5.160;2022-11-20T06:04:51;14.18;;;7.72;;
68229;SDS011;55048;52.220;5.160;2022-11-20T06:07:16;13.43;;;7.38;;
68229;SDS011;55048;52.220;5.160;2022-11-20T06:09:41;16.67;;;8.60;;
68229;SDS011;55048;52.220;5.160;2022-11-20T06:12:07;14.45;;;8.27;;
68229;SDS011;55048;52.220;5.160;2022-11-20T06:14:33;14.65;;;7.50;;
68229;SDS011;55048;52.220;5.160;2022-11-20T06:16:58;19.88;;;8.13;;
68229;SDS011;55048;52.220;5.160;2022-11-20T06:19:24;15.02;;;8.40;;
68229;SDS011;55048;52.220;5.160;2022-11-20T06:21:49;15.48;;;8.00;;
68229;SDS011;55048;52.220;5.160;2022-11-20T06:24:15;15.13;;;8.25;;
68229;SDS011;55048;52.220;5.160;2022-11-20T06:26:41;13.32;;;7.60;;
68229;SDS011;55048;52.220;5.160;2022-11-20T06:29:07;20.48;;;8.68;;
68229;SDS011;55048;52.220;5.160;2022-11-20T06:31:32;15.80;;;8.13;;
68229;SDS011;55048;52.220;5.160;2022-11-20T06:34:00;22.52;;;7.88;;
68229;SDS011;55048;52.220;5.160;2022-11-20T06:36:26;16.90;;;8.43;;
68229;SDS011;55048;52.220;5.160;2022-11-20T06:38:51;14.10;;;8.40;;
68229;SDS011;55048;52.220;5.160;2022-11-20T06:41:18;16.42;;;9.15;;
68229;SDS011;55048;52.220;5.160;2022-11-20T06:43:45;22.42;;;8.20;;
68229;SDS011;55048;52.220;5.160;2022-11-20T06:46:12;19.23;;;9.32;;
68229;SDS011;55048;52.220;5.160;2022-11-20T06:48:38;14.05;;;8.85;;
68229;SDS011;55048;52.220;5.160;2022-11-20T06:51:05;17.27;;;9.25;;
68229;SDS011;55048;52.220;5.160;2022-11-20T06:53:32;17.15;;;9.35;;
68229;SDS011;55048;52.220;5.160;2022-11-20T06:55:58;17.17;;;9.10;;
68229;SDS011;55048;52.220;5.160;2022-11-20T06:58:25;14.02;;;7.95;;
68229;SDS011;55048;52.220;5.160;2022-11-20T07:00:52;14.98;;;8.88;;
68229;SDS011;55048;52.220;5.160;2022-11-20T07:03:18;12.95;;;8.10;;
68229;SDS011;55048;52.220;5.160;2022-11-20T07:05:44;19.42;;;9.32;;
68229;SDS011;55048;52.220;5.160;2022-11-20T07:08:11;17.38;;;8.20;;
68229;SDS011;55048;52.220;5.160;2022-11-20T07:10:37;14.40;;;8.00;;
68229;SDS011;55048;52.220;5.160;2022-11-20T07:13:03;17.52;;;8.48;;
68229;SDS011;55048;52.220;5.160;2022-11-20T07:15:28;16.48;;;8.82;;
68229;SDS011;55048;52.220;5.160;2022-11-20T07:17:54;15.55;;;7.95;;
68229;SDS011;55048;52.220;5.160;2022-11-20T07:20:20;16.23;;;8.90;;
68229;SDS011;55048;52.220;5.160;2022-11-20T07:22:46;15.85;;;8.73;;
68229;SDS011;55048;52.220;5.160;2022-11-20T07:25:11;14.95;;;8.15;;
68229;SDS011;55048;52.220;5.160;2022-11-20T07:27:37;15.00;;;8.90;;
68229;SDS011;55048;52.220;5.160;2022-11-20T07:30:03;18.85;;;9.13;;
68229;SDS011;55048;52.220;5.160;2022-11-20T07:32:29;18.55;;;9.60;;
68229;SDS011;55048;52.220;5.160;2022-11-20T07:34:54;17.70;;;8.88;;
68229;SDS011;55048;52.220;5.160;2022-11-20T07:37:20;17.30;;;8.80;;
68229;SDS011;55048;52.220;5.160;2022-11-20T07:39:45;17.13;;;8.57;;
68229;SDS011;55048;52.220;5.160;2022-11-20T07:42:11;19.35;;;9.77;;
68229;SDS011;55048;52.220;5.160;2022-11-20T07:44:37;18.88;;;9.18;;
68229;SDS011;55048;52.220;5.160;2022-11-20T07:47:03;23.48;;;10.13;;
68229;SDS011;55048;52.220;5.160;2022-11-20T07:49:29;19.40;;;10.40;;
68229;SDS011;55048;52.220;5.160;2022-11-20T07:51:55;23.00;;;9.90;;
68229;SDS011;55048;52.220;5.160;2022-11-20T07:54:20;20.00;;;9.48;;
68229;SDS011;55048;52.220;5.160;2022-11-20T07:56:47;17.98;;;9.23;;
68229;SDS011;55048;52.220;5.160;2022-11-20T07:59:15;16.85;;;8.93;;
68229;SDS011;55048;52.220;5.160;2022-11-20T08:01:41;16.52;;;10.38;;
68229;SDS011;55048;52.220;5.160;2022-11-20T08:04:07;16.95;;;9.25;;
68229;SDS011;55048;52.220;5.160;2022-11-20T08:06:34;19.83;;;9.23;;
68229;SDS011;55048;52.220;5.160;2022-11-20T08:08:59;17.40;;;10.10;;
68229;SDS011;55048;52.220;5.160;2022-11-20T08:11:25;21.33;;;10.13;;
68229;SDS011;55048;52.220;5.160;2022-11-20T08:14:09;19.10;;;9.88;;
68229;SDS011;55048;52.220;5.160;2022-11-20T08:16:37;18.65;;;10.35;;
68229;SDS011;55048;52.220;5.160;2022-11-20T08:19:06;18.85;;;10.27;;
68229;SDS011;55048;52.220;5.160;2022-11-20T08:21:32;20.10;;;10.13;;
68229;SDS011;55048;52.220;5.160;2022-11-20T08:23:58;16.38;;;9.57;;
68229;SDS011;55048;52.220;5.160;2022-11-20T08:26:24;18.50;;;9.43;;
68229;SDS011;55048;52.220;5.160;2022-11-20T08:28:56;17.60;;;9.50;;
68229;SDS011;55048;52.220;5.160;2022-11-20T08:31:22;20.77;;;9.43;;
68229;SDS011;55048;52.220;5.160;2022-11-20T08:33:49;19.00;;;9.45;;
68229;SDS011;55048;52.220;5.160;2022-11-20T08:36:18;27.33;;;10.70;;
68229;SDS011;55048;52.220;5.160;2022-11-20T08:38:48;22.80;;;11.10;;
68229;SDS011;55048;52.220;5.160;2022-11-20T08:41:14;25.30;;;11.40;;
68229;SDS011;55048;52.220;5.160;2022-11-20T08:43:52;18.65;;;10.70;;
68229;SDS011;55048;52.220;5.160;2022-11-20T08:46:23;18.92;;;9.50;;
68229;SDS011;55048;52.220;5.160;2022-11-20T08:48:53;17.42;;;9.60;;
68229;SDS011;55048;52.220;5.160;2022-11-20T08:51:19;17.42;;;9.38;;
68229;SDS011;55048;52.220;5.160;2022-11-20T08:53:45;20.58;;;10.25;;
68229;SDS011;55048;52.220;5.160;2022-11-20T08:56:11;20.02;;;10.02;;
68229;SDS011;55048;52.220;5.160;2022-11-20T08:58:38;18.27;;;9.63;;
68229;SDS011;55048;52.220;5.160;2022-11-20T09:01:04;18.10;;;10.30;;
68229;SDS011;55048;52.220;5.160;2022-11-20T09:03:29;18.25;;;10.30;;
68229;SDS011;55048;52.220;5.160;2022-11-20T09:06:04;21.50;;;10.43;;
68229;SDS011;55048;52.220;5.160;2022-11-20T09:08:31;20.30;;;10.15;;
68229;SDS011;55048;52.220;5.160;2022-11-20T09:10:57;17.17;;;10.20;;
68229;SDS011;55048;52.220;5.160;2022-11-20T09:13:24;19.27;;;9.82;;
68229;SDS011;55048;52.220;5.160;2022-11-20T09:15:57;17.88;;;9.18;;
68229;SDS011;55048;52.220;5.160;2022-11-20T09:18:25;17.20;;;9.38;;
68229;SDS011;55048;52.220;5.160;2022-11-20T09:20:51;19.17;;;9.82;;
68229;SDS011;55048;52.220;5.160;2022-11-20T09:23:20;16.45;;;9.25;;
68229;SDS011;55048;52.220;5.160;2022-11-20T09:25:46;20.00;;;10.10;;
68229;SDS011;55048;52.220;5.160;2022-11-20T09:28:11;22.27;;;10.70;;
68229;SDS011;55048;52.220;5.160;2022-11-20T09:30:37;16.75;;;8.10;;
68229;SDS011;55048;52.220;5.160;2022-11-20T09:33:03;23.00;;;10.35;;
68229;SDS011;55048;52.220;5.160;2022-11-20T09:35:29;20.67;;;10.75;;
68229;SDS011;55048;52.220;5.160;2022-11-20T09:37:55;16.25;;;9.20;;
68229;SDS011;55048;52.220;5.160;2022-11-20T09:40:21;16.63;;;9.75;;
68229;SDS011;55048;52.220;5.160;2022-11-20T09:50:45;19.88;;;10.70;;
68229;SDS011;55048;52.220;5.160;2022-11-20T09:55:49;21.23;;;11.30;;
68229;SDS011;55048;52.220;5.160;2022-11-20T09:58:27;23.40;;;10.50;;
68229;SDS011;55048;52.220;5.160;2022-11-20T10:00:59;20.83;;;10.85;;
68229;SDS011;55048;52.220;5.160;2022-11-20T10:03:45;16.63;;;9.15;;
68229;SDS011;55048;52.220;5.160;2022-11-20T10:06:15;21.83;;;12.93;;
68229;SDS011;55048;52.220;5.160;2022-11-20T10:08:45;21.80;;;11.73;;
68229;SDS011;55048;52.220;5.160;2022-11-20T10:11:33;16.13;;;8.75;;
68229;SDS011;55048;52.220;5.160;2022-11-20T10:22:10;25.05;;;10.75;;
68229;SDS011;55048;52.220;5.160;2022-11-20T10:24:55;22.00;;;11.05;;
68229;SDS011;55048;52.220;5.160;2022-11-20T10:30:11;22.02;;;11.63;;
68229;SDS011;55048;52.220;5.160;2022-11-20T10:32:40;24.02;;;11.55;;
68229;SDS011;55048;52.220;5.160;2022-11-20T10:38:02;23.23;;;11.70;;
68229;SDS011;55048;52.220;5.160;2022-11-20T10:40:35;22.90;;;11.02;;
68229;SDS011;55048;52.220;5.160;2022-11-20T10:43:09;23.90;;;11.65;;
68229;SDS011;55048;52.220;5.160;2022-11-20T10:45:49;20.73;;;10.70;;
68229;SDS011;55048;52.220;5.160;2022-11-20T10:48:22;25.73;;;12.55;;
68229;SDS011;55048;52.220;5.160;2022-11-20T10:56:11;24.65;;;11.50;;
68229;SDS011;55048;52.220;5.160;2022-11-20T11:01:41;25.17;;;13.20;;
68229;SDS011;55048;52.220;5.160;2022-11-20T11:04:15;30.63;;;14.43;;
68229;SDS011;55048;52.220;5.160;2022-11-20T11:06:54;25.92;;;13.15;;
68229;SDS011;55048;52.220;5.160;2022-11-20T11:09:34;28.02;;;13.05;;
68229;SDS011;55048;52.220;5.160;2022-11-20T11:12:08;29.77;;;14.13;;
68229;SDS011;55048;52.220;5.160;2022-11-20T11:14:50;26.85;;;14.20;;
68229;SDS011;55048;52.220;5.160;2022-11-20T11:17:45;26.80;;;12.32;;
68229;SDS011;55048;52.220;5.160;2022-11-20T11:22:42;31.08;;;15.30;;
68229;SDS011;55048;52.220;5.160;2022-11-20T11:25:55;25.88;;;13.52;;
68229;SDS011;55048;52.220;5.160;2022-11-20T11:30:43;24.35;;;12.57;;
68229;SDS011;55048;52.220;5.160;2022-11-20T11:33:10;31.88;;;14.98;;
68229;SDS011;55048;52.220;5.160;2022-11-20T11:36:16;23.27;;;13.02;;
68229;SDS011;55048;52.220;5.160;2022-11-20T11:38:41;26.85;;;13.20;;
68229;SDS011;55048;52.220;5.160;2022-11-20T11:41:16;27.20;;;13.52;;
68229;SDS011;55048;52.220;5.160;2022-11-20T11:43:56;26.92;;;14.07;;
68229;SDS011;55048;52.220;5.160;2022-11-20T11:46:53;31.15;;;15.18;;
68229;SDS011;55048;52.220;5.160;2022-11-20T11:49:20;32.97;;;15.30;;
68229;SDS011;55048;52.220;5.160;2022-11-20T11:51:50;38.38;;;19.05;;
68229;SDS011;55048;52.220;5.160;2022-11-20T11:54:25;36.97;;;17.85;;
68229;SDS011;55048;52.220;5.160;2022-11-20T11:56:52;39.05;;;17.63;;
68229;SDS011;55048;52.220;5.160;2022-11-20T11:59:23;32.97;;;15.40;;
68229;SDS011;55048;52.220;5.160;2022-11-20T12:01:57;21.67;;;11.98;;
68229;SDS011;55048;52.220;5.160;2022-11-20T12:07:06;35.45;;;18.27;;
68229;SDS011;55048;52.220;5.160;2022-11-20T12:09:43;23.45;;;11.88;;
68229;SDS011;55048;52.220;5.160;2022-11-20T12:12:20;32.42;;;15.63;;
68229;SDS011;55048;52.220;5.160;2022-11-20T12:14:49;35.13;;;15.40;;
68229;SDS011;55048;52.220;5.160;2022-11-20T12:17:18;30.83;;;15.25;;
68229;SDS011;55048;52.220;5.160;2022-11-20T12:19:43;32.08;;;13.68;;
68229;SDS011;55048;52.220;5.160;2022-11-20T12:22:22;31.58;;;15.32;;
68229;SDS011;55048;52.220;5.160;2022-11-20T12:25:09;36.35;;;17.60;;
68229;SDS011;55048;52.220;5.160;2022-11-20T12:27:47;36.15;;;17.08;;
68229;SDS011;55048;52.220;5.160;2022-11-20T12:30:20;38.20;;;17.33;;
68229;SDS011;55048;52.220;5.160;2022-11-20T12:53:26;37.35;;;16.92;;
68229;SDS011;55048;52.220;5.160;2022-11-20T12:58:53;39.78;;;18.85;;
68229;SDS011;55048;52.220;5.160;2022-11-20T13:01:30;40.35;;;19.48;;
68229;SDS011;55048;52.220;5.160;2022-11-20T13:04:07;40.05;;;17.33;;
68229;SDS011;55048;52.220;5.160;2022-11-20T13:06:42;38.28;;;17.88;;
68229;SDS011;55048;52.220;5.160;2022-11-20T13:09:10;37.45;;;18.15;;
68229;SDS011;55048;52.220;5.160;2022-11-20T13:14:33;44.45;;;20.02;;
68229;SDS011;55048;52.220;5.160;2022-11-20T13:17:13;38.28;;;18.08;;
68229;SDS011;55048;52.220;5.160;2022-11-20T13:19:50;36.65;;;17.17;;
68229;SDS011;55048;52.220;5.160;2022-11-20T13:22:29;42.53;;;18.45;;
68229;SDS011;55048;52.220;5.160;2022-11-20T13:25:21;32.88;;;16.30;;
68229;SDS011;55048;52.220;5.160;2022-11-20T13:27:49;39.65;;;19.02;;
68229;SDS011;55048;52.220;5.160;2022-11-20T13:30:16;46.58;;;19.42;;
68229;SDS011;55048;52.220;5.160;2022-11-20T13:32:56;40.30;;;19.63;;
68229;SDS011;55048;52.220;5.160;2022-11-20T13:38:09;42.45;;;19.67;;
68229;SDS011;55048;52.220;5.160;2022-11-20T13:40:49;35.13;;;17.67;;
68229;SDS011;55048;52.220;5.160;2022-11-20T13:46:02;45.88;;;18.45;;
68229;SDS011;55048;52.220;5.160;2022-11-20T13:48:47;36.72;;;19.05;;
68229;SDS011;55048;52.220;5.160;2022-11-20T13:56:48;39.97;;;19.77;;
68229;SDS011;55048;52.220;5.160;2022-11-20T13:59:25;35.78;;;18.52;;
68229;SDS011;55048;52.220;5.160;2022-11-20T14:02:15;37.53;;;19.10;;
68229;SDS011;55048;52.220;5.160;2022-11-20T14:04:44;36.03;;;16.80;;
68229;SDS011;55048;52.220;5.160;2022-11-20T14:07:12;40.78;;;19.85;;
68229;SDS011;55048;52.220;5.160;2022-11-20T14:09:37;34.38;;;18.00;;
68229;SDS011;55048;52.220;5.160;2022-11-20T14:12:03;33.30;;;16.85;;
68229;SDS011;55048;52.220;5.160;2022-11-20T14:14:46;30.83;;;15.95;;
68229;SDS011;55048;52.220;5.160;2022-11-20T14:19:44;35.00;;;18.83;;
68229;SDS011;55048;52.220;5.160;2022-11-20T14:22:18;32.13;;;17.38;;
68229;SDS011;55048;52.220;5.160;2022-11-20T14:24:49;36.50;;;17.83;;
68229;SDS011;55048;52.220;5.160;2022-11-20T14:27:26;39.58;;;18.65;;
68229;SDS011;55048;52.220;5.160;2022-11-20T14:29:51;35.22;;;16.65;;
68229;SDS011;55048;52.220;5.160;2022-11-20T14:32:17;36.22;;;17.77;;
68229;SDS011;55048;52.220;5.160;2022-11-20T14:34:46;33.80;;;17.38;;
68229;SDS011;55048;52.220;5.160;2022-11-20T14:37:21;41.33;;;18.98;;
68229;SDS011;55048;52.220;5.160;2022-11-20T14:39:50;37.55;;;18.35;;
68229;SDS011;55048;52.220;5.160;2022-11-20T14:42:18;44.55;;;20.25;;
68229;SDS011;55048;52.220;5.160;2022-11-20T14:44:45;35.97;;;17.90;;
68229;SDS011;55048;52.220;5.160;2022-11-20T14:47:14;44.25;;;19.98;;
68229;SDS011;55048;52.220;5.160;2022-11-20T14:49:44;42.50;;;18.25;;
68229;SDS011;55048;52.220;5.160;2022-11-20T14:52:11;40.95;;;20.33;;
68229;SDS011;55048;52.220;5.160;2022-11-20T14:54:46;40.33;;;19.65;;
68229;SDS011;55048;52.220;5.160;2022-11-20T14:57:26;40.47;;;18.25;;
68229;SDS011;55048;52.220;5.160;2022-11-20T15:00:05;44.95;;;19.38;;
68229;SDS011;55048;52.220;5.160;2022-11-20T15:02:31;41.03;;;19.45;;
68229;SDS011;55048;52.220;5.160;2022-11-20T15:04:57;42.67;;;19.67;;
68229;SDS011;55048;52.220;5.160;2022-11-20T15:07:28;46.22;;;21.70;;
68229;SDS011;55048;52.220;5.160;2022-11-20T15:10:44;49.38;;;21.42;;
68229;SDS011;55048;52.220;5.160;2022-11-20T15:12:48;41.22;;;18.02;;
68229;SDS011;55048;52.220;5.160;2022-11-20T15:15:16;50.10;;;22.27;;
68229;SDS011;55048;52.220;5.160;2022-11-20T15:17:47;45.13;;;19.60;;
68229;SDS011;55048;52.220;5.160;2022-11-20T15:20:13;47.67;;;21.02;;
68229;SDS011;55048;52.220;5.160;2022-11-20T15:22:41;39.90;;;18.95;;
68229;SDS011;55048;52.220;5.160;2022-11-20T15:25:13;45.63;;;19.40;;
68229;SDS011;55048;52.220;5.160;2022-11-20T15:27:41;49.08;;;21.10;;
68229;SDS011;55048;52.220;5.160;2022-11-20T15:30:14;50.05;;;20.70;;
68229;SDS011;55048;52.220;5.160;2022-11-20T15:32:42;45.10;;;20.40;;
68229;SDS011;55048;52.220;5.160;2022-11-20T15:35:08;53.95;;;21.42;;
68229;SDS011;55048;52.220;5.160;2022-11-20T15:37:33;40.97;;;19.80;;
68229;SDS011;55048;52.220;5.160;2022-11-20T15:39:59;40.00;;;19.55;;
68229;SDS011;55048;52.220;5.160;2022-11-20T15:42:24;53.63;;;20.70;;
68229;SDS011;55048;52.220;5.160;2022-11-20T15:44:50;47.53;;;20.42;;
68229;SDS011;55048;52.220;5.160;2022-11-20T15:47:15;42.08;;;19.25;;
68229;SDS011;55048;52.220;5.160;2022-11-20T15:49:42;45.45;;;20.63;;
68229;SDS011;55048;52.220;5.160;2022-11-20T15:52:08;43.47;;;19.10;;
68229;SDS011;55048;52.220;5.160;2022-11-20T15:54:35;38.28;;;16.88;;
68229;SDS011;55048;52.220;5.160;2022-11-20T15:57:00;43.65;;;19.05;;
68229;SDS011;55048;52.220;5.160;2022-11-20T15:59:27;37.28;;;16.80;;
68229;SDS011;55048;52.220;5.160;2022-11-20T16:01:53;36.38;;;17.35;;
68229;SDS011;55048;52.220;5.160;2022-11-20T16:04:18;43.40;;;20.17;;
68229;SDS011;55048;52.220;5.160;2022-11-20T16:06:44;41.97;;;19.23;;
68229;SDS011;55048;52.220;5.160;2022-11-20T16:09:09;37.50;;;17.45;;
68229;SDS011;55048;52.220;5.160;2022-11-20T16:11:35;37.90;;;17.48;;